Date,TemperatureHighF,TemperatureAvgF,TemperatureLowF,DewpointHighF,DewpointAvgF,DewpointLowF,HumidityHigh,HumidityAvg,HumidityLow,PressureMaxIn,PressureMinIn,WindSpeedMaxMPH,WindSpeedAvgMPH,GustSpeedMaxMPH,PrecipitationSumIn
2013-1-1,47.3,43.4,39.2,39.5,35.2,26.6,91,74,48,30.14,29.99,5,0,6,0.15
2013-1-2,45.0,38.8,34.9,36.8,31.4,21.2,94,76,57,30.33,30.08,6,1,6,0.07
2013-1-3,39.4,36.0,32.9,21.6,18.9,15.9,58,50,41,30.37,30.26,5,1,5,0.00
2013-1-4,47.5,40.1,20.8,29.6,21.8,18.4,91,50,34,30.35,30.23,12,2,12,0.00
2013-1-5,50.2,37.4,24.4,27.9,21.5,18.1,83,55,29,30.48,30.31,7,1,7,0.00
2013-1-6,53.8,44.2,34.3,36.7,30.7,26.3,86,61,39,30.32,30.13,9,1,9,0.01
2013-1-7,49.3,38.8,27.7,33.0,27.8,23.6,88,67,44,30.55,30.25,12,2,14,0.00
2013-1-8,50.7,38.0,26.8,35.5,30.3,23.6,92,75,52,30.58,30.48,6,0,6,0.00
2013-1-9,66.0,48.8,32.2,50.8,41.4,30.1,93,77,57,30.51,30.37,10,1,10,0.00
2013-1-10,58.8,44.7,35.2,44.5,34.4,27.4,97,70,32,30.68,30.48,4,0,4,0.00
2013-1-11,46.9,41.6,34.2,46.4,38.4,29.8,98,88,77,30.61,30.21,5,0,5,0.08
2013-1-12,53.4,49.5,45.7,51.9,48.6,45.4,99,97,91,30.28,30.19,3,0,3,0.01
2013-1-13,70.9,59.9,52.0,62.0,57.2,51.7,99,92,71,30.23,30.11,8,2,8,0.00
2013-1-14,64.8,57.3,43.5,62.2,54.5,40.8,97,90,85,30.37,30.12,14,2,14,0.56
2013-1-15,43.5,40.8,39.4,41.0,39.7,38.2,98,96,90,30.42,30.22,11,2,11,0.90
2013-1-16,44.6,40.7,36.7,43.9,39.8,35.7,98,97,93,30.22,30.01,8,1,8,0.20
2013-1-17,46.2,40.4,32.2,45.7,39.4,31.1,98,96,89,30.23,30.08,9,1,9,0.70
2013-1-18,40.3,33.6,27.1,36.3,28.2,22.1,98,82,49,30.63,30.21,9,1,9,0.57
2013-1-19,51.8,35.5,27.7,30.4,26.1,23.2,92,70,41,30.59,30.35,9,2,10,0.04
2013-1-21,55.9,48.3,38.3,29.2,20.5,2.8,66,34,22,30.18,29.89,14,4,14,0.00
2013-1-22,38.3,28.2,19.8,6.0,-1.7,-14.1,43,28,14,30.40,30.03,14,4,15,0.00
2013-1-23,34.0,24.7,11.7,18.8,0.9,-7.7,73,38,17,30.47,30.20,15,1,15,0.00
2013-1-24,29.7,23.8,15.1,21.3,10.5,-2.2,86,60,27,30.65,30.12,20,4,20,0.00
2013-1-25,26.1,18.5,12.9,17.5,10.0,2.9,86,71,37,30.65,30.25,9,1,9,0.00
2013-1-26,39.9,33.5,19.8,26.3,24.1,16.5,89,69,53,30.54,30.18,7,0,7,0.05
2013-1-27,39.9,31.9,22.8,25.8,21.8,19.0,87,67,46,30.72,30.54,8,1,8,0.00
2013-1-28,55.6,42.6,32.4,44.7,34.7,23.5,93,74,55,30.61,30.21,10,2,10,0.21
2013-1-29,76.5,58.1,41.7,55.2,47.6,39.3,92,70,46,30.26,30.11,9,1,9,0.00
2013-1-30,72.3,67.9,61.3,62.3,59.5,53.7,85,75,66,30.11,29.37,22,6,26,0.05
2013-1-31,67.3,46.9,28.8,63.1,28.2,13.1,93,51,27,30.06,29.32,23,8,24,0.43
2013-2-1,37.4,31.2,20.8,23.8,7.6,-5.2,72,40,19,30.50,29.88,27,6,29,0.00
2013-2-2,38.1,27.6,17.1,26.5,13.5,5.8,85,59,28,30.51,30.10,11,1,11,0.00
2013-2-3,42.8,34.8,27.7,31.1,24.4,14.7,85,67,43,30.10,29.93,13,2,13,0.01
2013-2-4,41.5,33.2,21.7,23.4,17.3,13.7,79,53,36,30.24,30.03,8,1,8,0.00
2013-2-5,58.5,47.0,39.4,34.4,29.2,23.2,66,51,37,30.03,29.92,12,2,14,0.00
2013-2-6,58.3,42.8,29.1,34.2,29.2,25.4,89,62,31,30.44,30.02,9,1,9,0.00
2013-2-7,45.1,37.6,29.5,34.2,28.0,23.8,87,69,52,30.53,30.25,10,2,10,0.07
2013-2-8,51.3,41.8,36.1,40.2,35.0,23.5,95,78,48,30.25,29.84,18,4,18,0.59
2013-2-9,50.4,38.1,26.6,23.9,17.5,4.5,75,46,15,30.49,30.05,17,3,17,0.00
2013-2-10,50.0,35.2,19.8,26.6,19.7,14.7,87,57,26,30.61,30.35,9,1,9,0.00
2013-2-11,61.7,51.1,38.7,56.1,46.6,26.4,97,85,52,30.35,29.90,19,3,19,0.08
2013-2-12,61.2,51.0,37.0,43.6,29.8,17.9,77,47,20,30.12,29.92,11,1,12,0.00
2013-2-13,47.8,42.7,36.9,39.7,35.4,28.6,94,76,48,30.03,29.72,13,2,13,0.07
2013-2-14,53.2,39.5,28.8,41.1,31.5,26.2,98,76,37,30.15,29.89,10,1,10,0.01
2013-2-15,63.3,46.4,28.9,38.4,30.0,21.4,93,60,20,30.17,29.99,17,2,17,0.00
2013-2-16,42.1,35.8,31.5,35.1,30.9,16.7,93,83,53,30.12,29.93,12,2,12,0.19
2013-2-17,34.2,28.7,23.4,17.5,7.1,-3.2,70,42,21,30.34,29.96,20,4,20,0.00
2013-2-18,50.5,31.7,14.7,16.9,8.3,1.6,79,43,15,30.51,30.34,8,2,8,0.00
2013-2-19,49.3,41.9,36.0,45.9,33.1,17.9,93,72,39,30.32,29.88,8,3,8,0.11
2013-2-20,48.0,38.5,26.8,33.0,17.0,10.3,90,45,22,30.25,29.98,8,3,8,0.00
2013-2-21,46.4,37.9,24.4,18.0,14.8,12.6,64,39,26,30.42,30.24,11,4,11,0.00
2013-2-22,39.4,35.1,32.0,32.2,23.5,15.1,88,63,47,30.48,30.30,6,2,6,0.04
2013-2-23,43.7,38.8,34.9,41.2,37.1,32.3,96,94,89,30.30,29.91,8,2,8,0.15
2013-2-24,59.2,45.9,34.5,44.0,36.2,21.3,99,72,38,30.21,29.89,15,2,15,0.00
2013-2-25,45.9,35.0,25.0,22.6,20.6,18.5,80,58,35,30.34,30.21,9,1,13,0.00
2013-2-26,52.3,39.6,26.8,51.8,36.7,22.0,98,89,76,30.32,29.65,18,3,18,0.44
2013-2-27,60.4,48.8,36.5,49.1,43.4,31.5,99,85,37,29.81,29.64,8,2,8,0.01
2013-2-28,50.4,44.7,35.8,38.1,27.6,21.7,92,52,35,29.87,29.74,16,4,16,0.00
2013-3-1,46.4,40.1,29.7,30.5,25.7,21.8,83,57,45,30.00,29.87,11,3,11,0.00
2013-3-2,39.6,36.3,33.6,22.9,21.7,20.5,59,55,48,30.01,29.94,9,4,9,0.00
2013-3-3,46.9,39.0,24.6,24.2,17.9,15.7,86,44,30,30.04,29.89,13,4,13,0.00
2013-3-4,50.7,34.4,20.5,19.6,13.8,5.8,77,47,18,30.16,30.03,16,2,16,0.00
2013-3-5,50.2,36.9,24.3,36.8,24.4,16.5,95,65,28,30.19,29.79,11,2,11,0.33
2013-3-6,37.8,35.2,32.5,37.0,33.7,31.7,98,94,87,30.01,29.53,27,7,31,1.32
2013-3-7,50.0,43.2,29.7,31.6,25.5,23.0,87,51,37,30.28,30.08,19,5,21,0.00
2013-3-8,73.8,41.1,31.1,48.6,25.4,21.5,76,55,39,30.37,30.24,24,6,24,0.00
2013-3-9,62.6,43.8,27.7,29.7,24.3,16.0,88,52,18,30.44,30.34,13,2,13,0.00
2013-3-10,66.2,47.3,27.7,38.7,24.1,10.4,91,51,12,30.44,30.31,10,2,10,0.00
2013-3-11,68.5,55.0,41.9,50.9,44.9,38.6,93,71,48,30.35,30.04,14,3,16,0.00
2013-3-12,71.4,59.9,45.5,62.8,52.3,32.4,96,77,56,30.06,29.81,16,5,16,0.28
2013-3-13,57.7,43.5,30.4,37.1,27.7,14.2,94,58,23,30.19,30.02,20,3,20,0.01
2013-3-14,36.9,34.9,32.4,15.9,15.1,14.2,49,44,40,30.21,30.19,9,3,9,0.00
2013-3-15,60.3,45.6,25.3,33.9,27.7,18.5,82,53,24,30.23,29.92,12,2,12,0.00
2013-3-16,72.0,53.8,40.8,55.0,43.8,31.9,95,71,44,29.96,29.67,15,2,17,0.22
2013-3-17,48.4,40.1,37.0,43.5,36.7,34.1,93,87,83,30.32,29.96,7,2,7,0.21
2013-3-18,36.5,34.9,32.9,35.7,34.2,31.6,98,97,95,30.39,29.99,7,2,7,0.65
2013-3-19,67.6,46.9,34.2,43.2,26.0,-5.1,99,62,10,30.08,29.83,22,3,22,0.01
2013-3-20,57.7,45.9,27.0,23.8,8.8,-7.0,69,26,10,30.15,29.86,14,3,14,0.00
2013-3-21,48.0,37.7,29.5,26.8,15.8,4.1,81,43,20,30.04,29.81,21,5,21,0.00
2013-3-22,52.0,36.9,24.3,19.8,12.6,7.1,57,39,19,30.12,30.00,16,2,16,0.00
2013-3-23,57.6,41.1,24.6,28.7,20.0,11.3,85,49,16,30.17,30.00,14,1,14,0.00
2013-3-24,41.2,36.7,32.4,31.4,27.1,21.6,94,69,46,30.08,29.73,9,2,9,0.04
2013-3-25,39.7,35.2,32.4,35.7,33.0,31.0,96,92,85,29.82,29.62,10,1,10,0.35
2013-3-26,52.0,39.3,27.5,35.6,27.8,22.3,97,68,34,30.14,29.82,15,2,15,0.01
2013-3-27,52.3,40.5,26.8,31.2,23.7,18.9,90,56,28,30.27,30.14,17,3,17,0.00
2013-3-28,54.9,42.1,28.2,28.8,23.8,21.8,82,51,29,30.36,30.23,17,4,17,0.00
2013-3-29,59.9,46.0,33.4,32.6,27.2,21.4,82,52,24,30.39,30.26,12,2,14,0.00
2013-3-30,66.2,50.1,32.2,37.0,28.7,20.5,90,51,18,30.34,30.19,14,2,14,0.00
2013-3-31,58.1,50.4,46.2,53.0,43.6,30.6,95,79,50,30.21,29.85,11,2,11,0.15
2013-4-1,72.1,54.9,37.8,50.7,38.5,22.5,99,61,30,30.09,29.84,23,4,23,0.01
2013-4-2,57.6,45.4,28.8,29.2,16.4,0.5,80,37,10,30.27,30.09,14,3,14,0.00
2013-4-3,59.2,44.2,26.2,27.6,12.8,0.1,79,35,10,30.48,30.27,16,3,16,0.00
2013-4-4,52.0,40.7,30.2,35.8,19.4,9.7,94,46,20,30.53,30.14,8,2,8,0.40
2013-4-5,66.7,49.9,37.0,43.2,34.2,26.3,96,63,22,30.15,29.94,15,3,15,0.21
2013-4-6,60.8,49.7,40.5,35.8,24.2,11.6,82,41,16,30.42,30.13,11,3,11,0.00
2013-4-7,74.1,55.8,34.0,41.3,35.1,28.9,84,50,26,30.40,30.13,16,3,16,0.00
2013-4-8,84.6,69.4,52.5,52.1,46.3,40.7,75,46,25,30.21,30.08,12,2,12,0.00
2013-4-9,89.1,75.8,59.9,55.9,51.4,45.3,76,46,22,30.22,30.08,11,2,11,0.00
2013-4-10,93.4,80.2,64.6,58.7,54.3,49.8,71,44,23,30.12,29.93,12,3,15,0.00
2013-4-11,88.5,75.9,64.0,59.7,57.1,55.4,79,53,33,30.00,29.84,13,3,13,0.00
2013-4-12,86.2,74.8,64.9,67.6,60.7,39.6,97,64,32,29.85,29.63,16,4,16,0.31
2013-4-13,75.4,63.5,47.1,52.6,40.4,32.2,88,47,22,30.05,29.77,12,2,14,0.00
2013-4-14,77.7,61.9,41.7,47.5,37.1,25.9,92,48,17,30.21,30.04,15,2,15,0.00
2013-4-15,68.7,60.0,53.1,54.4,49.9,35.4,95,71,38,30.37,30.17,11,2,11,0.11
2013-4-16,79.3,66.1,54.7,59.8,55.6,51.5,92,71,44,30.41,30.26,11,2,11,0.00
2013-4-17,84.6,72.6,60.3,62.4,59.8,55.7,89,67,43,30.29,30.20,9,2,9,0.00
2013-4-18,83.3,70.9,59.9,64.6,58.6,54.2,96,69,39,30.30,30.13,14,3,14,0.01
2013-4-19,82.8,70.6,65.1,67.2,64.1,58.6,96,81,53,30.12,29.75,18,4,18,0.37
2013-4-20,66.4,57.7,44.8,63.0,31.7,21.0,93,41,19,30.40,29.83,16,3,16,0.00
2013-4-21,59.5,50.7,41.2,36.2,28.3,24.7,64,43,27,30.67,30.40,13,3,13,0.00
2013-4-22,60.6,47.7,34.5,41.5,36.1,31.1,89,66,41,30.66,30.45,12,3,12,0.00
2013-4-23,64.2,52.1,45.9,46.8,43.7,41.4,92,74,50,30.45,30.23,11,2,11,0.00
2013-4-24,80.1,63.0,43.2,55.7,50.1,41.7,98,67,37,30.23,29.97,14,3,14,0.00
2013-4-25,68.9,59.7,50.2,55.2,41.1,28.5,72,52,23,30.39,30.05,16,2,16,0.00
2013-4-26,72.7,56.9,39.0,45.2,37.5,26.9,94,55,19,30.56,30.38,8,1,8,0.00
2013-4-27,75.6,62.0,47.7,46.7,40.8,33.5,85,50,25,30.52,30.37,10,2,10,0.00
2013-4-28,66.9,58.1,50.7,52.0,43.0,36.6,90,59,37,30.40,30.23,8,2,8,0.01
2013-4-29,66.0,59.3,54.1,61.4,57.4,51.8,98,93,84,30.25,30.09,11,1,11,0.37
2013-4-30,67.6,59.9,56.3,58.7,56.2,54.2,97,88,72,30.34,30.15,8,2,8,0.05
2013-5-1,72.9,61.0,53.2,55.6,48.2,40.5,97,67,34,30.49,30.33,10,2,10,0.00
2013-5-2,69.6,58.2,50.0,51.8,49.0,42.2,91,73,48,30.51,30.40,8,2,8,0.00
2013-5-3,72.9,56.5,43.3,53.7,44.9,38.6,98,70,30,30.44,30.35,14,2,18,0.00
2013-5-4,66.9,53.0,43.2,51.0,45.0,40.7,92,75,52,30.40,30.25,11,2,11,0.00
2013-5-5,64.8,54.7,43.7,50.4,45.2,37.8,86,71,54,30.30,30.21,14,2,14,0.00
2013-5-6,69.4,59.8,53.2,61.4,55.9,49.7,97,87,63,30.23,30.03,17,3,17,0.13
2013-5-7,77.0,64.5,58.5,65.5,59.9,52.8,99,87,44,30.07,29.92,12,2,12,0.93
2013-5-8,68.2,59.8,55.4,59.8,57.7,55.1,99,93,64,30.10,30.02,6,0,6,0.09
2013-5-9,81.7,65.0,52.9,61.6,56.7,52.6,99,79,41,30.13,30.04,11,2,11,0.00
2013-5-10,89.1,72.3,54.1,64.1,58.9,53.6,99,68,34,30.13,29.98,13,1,13,0.00
2013-5-11,82.9,73.0,61.2,65.3,62.4,57.9,94,71,47,30.02,29.83,17,2,17,0.17
2013-5-12,73.4,64.8,47.3,61.7,47.8,28.0,99,61,21,30.15,29.83,14,2,14,0.00
2013-5-13,65.3,52.2,39.2,45.1,34.6,23.1,96,58,23,30.28,30.14,14,2,14,0.00
2013-5-14,72.1,55.1,35.2,43.4,36.3,29.3,96,56,23,30.34,30.15,13,2,13,0.00
2013-5-15,90.3,72.9,55.8,62.0,52.9,39.6,67,50,35,30.17,29.86,12,3,13,0.00
2013-5-16,91.0,70.4,61.5,66.1,62.4,55.5,98,79,33,30.06,29.90,14,1,14,0.26
2013-5-17,86.7,72.8,61.9,68.5,58.2,47.3,99,66,30,30.24,30.02,11,1,11,0.00
2013-5-18,67.5,63.7,59.7,66.0,61.8,54.8,99,94,70,30.30,30.21,11,1,11,0.27
2013-5-19,76.8,70.1,63.1,68.7,66.1,62.8,99,88,74,30.28,30.17,7,1,7,0.00
2013-5-20,75.0,75.0,75.0,68.1,68.1,68.1,79,79,79,30.17,30.17,0,0,3,0.00
2013-5-21,75.0,75.0,75.0,68.1,68.1,68.1,79,79,79,30.17,30.17,0,0,3,0.00
2013-5-22,77.4,75.1,75.0,68.1,68.0,66.3,79,79,72,30.17,30.02,6,0,6,0.12
2013-5-23,85.6,74.8,68.2,71.4,68.0,63.2,98,80,53,30.04,29.87,10,2,10,0.12
2013-5-24,69.8,61.9,50.2,63.0,51.5,35.8,95,71,41,30.27,29.87,17,3,17,0.02
2013-5-25,72.5,56.1,40.1,41.3,34.8,25.4,80,48,19,30.35,30.20,13,3,13,0.00
2013-5-26,76.8,60.3,42.1,49.0,40.0,30.3,94,55,19,30.36,30.24,11,1,12,0.00
2013-5-27,78.3,60.1,44.8,58.4,50.4,43.2,96,73,35,30.38,30.27,5,0,5,0.00
2013-5-28,88.0,73.4,56.8,67.5,61.6,53.3,91,68,48,30.30,30.18,11,2,11,0.00
2013-5-29,91.9,80.0,68.7,68.5,64.9,62.8,82,61,42,30.26,30.20,11,2,11,0.00
2013-5-30,92.7,79.3,67.5,69.4,65.5,62.4,87,65,39,30.32,30.24,9,2,9,0.00
2013-5-31,92.7,78.7,63.7,70.5,65.3,62.0,98,67,38,30.29,30.15,12,2,12,0.00
2013-6-1,93.2,81.4,68.4,71.7,66.8,62.5,89,64,42,30.19,30.05,12,2,12,0.00
2013-6-2,88.7,77.7,69.3,73.7,67.7,64.2,98,73,50,30.08,29.97,15,3,15,0.31
2013-6-3,86.5,74.6,68.7,74.5,69.6,64.6,99,86,54,30.05,29.90,8,1,8,0.07
2013-6-4,82.8,70.3,56.8,68.1,52.3,40.3,98,59,23,30.23,30.04,8,1,8,0.00
2013-6-5,83.3,70.6,55.4,61.6,55.6,50.6,96,63,34,30.27,30.15,10,2,10,0.00
2013-6-6,78.8,70.3,60.1,68.7,61.6,51.7,91,74,61,30.17,29.92,15,3,15,0.01
2013-6-7,74.3,70.6,68.2,73.2,70.1,67.9,99,98,91,29.92,29.63,10,2,10,0.63
2013-6-8,84.6,72.2,65.8,73.2,67.5,64.0,99,87,52,30.19,29.85,6,1,6,0.17
2013-6-9,88.3,75.0,62.2,73.4,68.2,62.0,99,81,53,30.26,30.14,10,2,10,0.00
2013-6-10,84.6,75.6,70.0,76.6,72.2,69.0,99,90,69,30.19,29.92,11,2,11,0.19
2013-6-11,88.2,76.9,68.4,73.2,68.2,64.6,99,77,49,30.00,29.90,12,2,12,0.01
2013-6-12,93.7,82.3,64.8,75.1,70.3,64.0,99,70,45,30.00,29.89,10,2,10,0.00
2013-6-13,95.0,77.9,66.9,75.6,71.6,62.1,99,83,44,29.91,29.60,20,2,20,0.39
2013-6-14,80.4,69.7,59.5,62.3,57.2,52.0,97,68,39,30.08,29.74,14,2,14,0.00
2013-6-15,87.1,72.2,56.7,63.5,59.6,54.9,99,70,35,30.20,30.08,9,1,9,0.00
2013-6-16,90.9,77.7,63.0,71.2,66.5,61.1,96,70,46,30.14,30.02,14,2,14,0.00
2013-6-17,88.9,77.4,69.1,74.3,70.6,66.7,99,80,57,30.09,29.98,8,1,8,0.11
2013-6-18,79.3,71.7,65.7,76.8,70.0,65.4,99,94,82,30.03,29.83,14,1,15,0.53
2013-6-19,79.7,70.5,63.7,69.6,65.4,63.4,99,85,62,30.24,29.97,7,1,7,0.00
2013-6-20,83.5,72.6,62.8,66.2,60.0,51.8,99,68,43,30.37,30.24,9,2,9,0.00
2013-6-21,86.5,71.8,55.8,67.1,58.8,46.3,98,68,27,30.40,30.30,11,1,11,0.00
2013-6-22,88.9,74.2,64.4,73.6,67.9,63.3,99,83,52,30.36,30.25,12,1,12,0.08
2013-6-23,90.3,78.1,69.4,75.2,72.0,69.2,99,83,54,30.29,30.18,9,1,9,0.28
2013-6-24,93.7,81.7,71.4,76.1,72.7,70.2,99,76,49,30.25,30.13,7,2,7,0.00
2013-6-25,95.4,83.6,73.0,74.7,72.6,69.7,95,72,44,30.17,30.01,8,2,8,0.00
2013-6-26,96.3,80.4,70.5,75.3,72.1,66.3,97,78,48,30.05,29.91,19,2,19,0.12
2013-6-27,88.2,75.8,68.0,76.6,71.4,67.7,99,88,54,29.96,29.75,13,2,13,0.05
2013-6-28,94.1,80.5,70.9,80.7,72.3,68.9,99,78,49,29.78,29.59,12,2,12,0.07
2013-6-29,91.9,81.0,70.3,73.2,69.7,64.2,96,71,41,29.80,29.64,8,2,8,0.00
2013-6-30,90.1,78.7,70.5,77.1,73.2,69.1,99,84,57,29.97,29.80,9,2,9,0.39
2013-7-1,86.9,75.6,69.6,77.6,73.5,69.1,99,94,66,30.09,29.95,14,1,14,0.30
2013-7-2,82.2,75.5,72.5,76.5,74.0,72.2,99,95,80,30.30,30.09,8,1,8,0.12
2013-7-3,87.3,77.2,72.1,78.7,74.9,71.9,99,93,67,30.35,30.26,8,1,8,0.64
2013-7-4,91.8,81.7,73.2,76.8,73.3,70.7,99,78,53,30.38,30.26,9,2,9,0.00
2013-7-5,92.1,82.0,72.5,75.3,73.2,70.7,97,76,54,30.37,30.24,9,2,9,0.00
2013-7-6,93.6,83.1,74.8,76.3,73.3,68.9,97,74,47,30.33,30.20,8,2,8,0.00
2013-7-7,92.5,83.2,74.3,75.9,73.7,72.2,94,74,53,30.25,30.11,13,2,13,0.00
2013-7-8,89.8,79.6,72.5,75.0,72.7,70.0,99,81,55,30.24,30.16,8,1,8,0.04
2013-7-9,92.3,81.6,73.0,77.5,74.7,72.2,99,81,57,30.23,30.12,8,1,8,0.00
2013-7-10,94.1,80.7,73.0,78.8,73.8,70.3,99,81,53,30.15,30.00,14,2,14,0.56
2013-7-11,73.9,72.8,71.6,73.7,72.6,71.3,99,99,99,30.05,29.99,4,1,4,0.06
2013-7-12,78.3,73.6,67.6,72.4,70.1,67.3,99,89,78,30.14,29.97,7,2,7,0.25
2013-7-13,86.5,76.5,67.6,77.5,72.3,67.4,99,87,70,30.34,30.14,6,1,6,0.02
2013-7-14,91.4,78.3,71.8,78.6,74.1,70.8,99,88,54,30.43,30.34,6,1,6,0.00
2013-7-15,96.1,82.5,70.2,78.0,73.5,69.9,99,77,48,30.43,30.31,5,1,5,0.00
2013-7-16,96.4,83.4,72.5,80.4,75.8,72.2,99,80,52,30.33,30.24,7,1,7,0.28
2013-7-17,97.9,83.8,72.7,81.0,75.9,70.8,99,80,44,30.31,30.18,7,1,7,0.01
2013-7-18,98.4,86.2,74.1,79.8,76.3,71.4,99,76,43,30.23,30.11,6,1,6,0.00
2013-7-22,90.7,79.5,71.1,76.7,74.1,70.8,99,85,61,30.04,29.88,4,1,4,0.00
2013-7-23,91.9,82.4,73.8,75.7,73.4,71.0,97,77,52,29.88,29.77,7,2,7,0.00
2013-7-24,88.7,80.5,70.9,74.2,70.6,63.7,99,74,54,29.97,29.78,4,1,4,0.00
2013-7-25,79.9,73.3,65.8,63.9,61.1,57.7,88,66,51,30.12,29.96,5,2,5,0.00
2013-7-26,86.9,72.7,58.8,66.5,62.6,58.5,99,75,41,30.20,30.12,5,1,5,0.00
2013-7-27,85.1,74.3,64.4,73.3,69.0,64.1,99,85,63,30.16,30.03,4,1,4,0.00
2013-7-28,90.1,76.2,70.0,72.2,70.3,67.2,99,84,51,30.08,29.98,8,1,8,0.43
2013-7-29,85.8,74.4,65.7,70.8,65.5,58.9,99,77,44,30.25,29.78,8,1,8,0.01
2013-7-30,87.4,73.9,61.5,69.2,63.9,59.3,99,75,41,30.33,30.23,6,1,6,0.00
2013-7-31,84.2,71.8,64.6,73.3,68.4,64.3,99,90,58,30.25,30.11,10,1,10,1.00
2013-8-1,86.4,73.2,68.2,77.6,71.2,64.9,99,94,63,30.12,29.92,19,1,19,0.73
2013-8-2,90.5,76.4,64.2,74.0,67.6,63.2,99,78,44,30.09,29.97,8,1,8,0.00
2013-8-3,88.5,76.3,66.9,72.4,68.7,64.9,99,80,49,30.08,30.00,8,1,8,0.00
2013-8-4,85.6,76.0,64.9,71.3,62.6,53.8,96,67,37,30.13,30.00,13,2,13,0.00
2013-8-5,84.7,70.3,58.5,64.1,59.6,53.6,99,73,37,30.21,30.11,6,1,6,0.00
2013-8-7,75.2,74.3,73.4,71.9,71.0,70.4,92,89,85,30.14,30.12,1,0,1,0.00
2013-8-8,89.6,80.7,72.9,76.5,73.6,70.8,95,80,55,30.15,30.07,8,1,8,0.00
2013-8-9,94.1,84.6,76.3,77.9,75.2,72.5,94,75,55,30.09,29.99,16,2,17,0.00
2013-8-10,87.3,78.3,72.1,76.4,73.9,68.7,99,87,64,30.19,30.06,12,1,12,0.22
2013-8-11,85.3,76.8,71.2,76.7,73.9,71.0,99,91,72,30.21,30.09,4,0,4,0.01
2013-8-12,92.8,80.8,71.6,76.5,73.7,69.2,99,81,48,30.13,30.00,6,1,6,0.00
2013-8-13,89.6,79.7,72.3,76.7,74.3,69.9,96,84,59,30.01,29.83,11,1,11,0.09
2013-8-14,77.4,70.5,58.8,72.6,57.0,48.9,99,66,41,30.21,29.89,11,2,11,0.00
2013-8-15,72.0,59.2,54.5,60.5,56.8,54.2,99,92,64,30.28,30.19,4,0,4,0.00
2013-8-20,82.8,76.1,72.1,74.0,72.3,71.5,98,88,75,30.27,30.20,1,0,1,0.00
2013-8-21,90.0,77.7,67.8,76.0,73.3,67.5,99,88,59,30.31,30.18,4,1,4,0.00
2013-8-22,92.1,80.0,72.1,75.0,72.6,67.3,99,81,46,30.21,30.05,8,1,8,0.00
2013-8-23,80.1,70.3,61.3,74.7,69.3,61.0,99,97,80,30.21,30.03,11,1,11,0.72
2013-8-24,83.8,69.1,57.0,69.0,62.6,56.6,99,82,49,30.42,30.21,7,1,7,0.00
2013-8-25,82.9,69.1,58.5,68.9,61.1,56.1,99,79,45,30.51,30.39,7,1,7,0.00
2013-8-26,87.3,70.6,54.9,66.2,61.0,54.6,99,76,41,30.43,30.15,8,1,8,0.00
2013-8-27,91.0,80.5,64.0,75.5,71.0,62.3,96,75,51,30.10,30.00,5,1,5,0.00
2013-8-28,80.8,75.3,72.1,75.3,73.7,71.8,99,95,80,30.06,29.92,7,1,7,0.12
2013-8-29,86.4,76.9,70.5,75.4,72.6,68.7,99,88,64,30.12,29.90,8,1,8,0.00
2013-8-30,88.2,75.6,65.1,72.6,68.6,64.7,99,81,51,30.16,30.01,6,1,6,0.00
2013-8-31,90.5,78.0,69.1,75.6,71.4,68.4,99,82,59,30.05,29.90,10,2,12,0.01
2013-9-1,94.5,78.7,69.3,76.0,72.3,69.0,99,83,52,29.97,29.86,8,1,8,0.00
2013-9-2,91.6,82.7,72.1,75.7,73.7,70.1,99,76,51,29.93,29.85,7,1,7,0.00
2013-9-3,88.5,77.8,70.2,74.8,70.0,62.7,99,79,50,30.05,29.84,8,1,8,0.00
2013-9-4,84.2,73.7,64.9,65.6,60.9,55.8,96,66,47,30.19,30.04,7,1,8,0.00
2013-9-5,90.0,73.8,59.9,69.6,62.2,54.4,99,73,32,30.21,30.10,9,1,9,0.00
2013-9-6,81.3,70.0,59.5,60.1,56.5,52.7,92,64,44,30.32,30.20,8,1,8,0.00
2013-9-7,81.5,67.3,55.4,65.7,60.6,55.1,99,82,53,30.24,30.04,8,1,8,0.00
2013-9-8,89.6,74.5,61.3,72.2,66.0,60.7,99,79,45,30.11,29.97,7,1,7,0.00
2013-9-9,82.0,74.7,68.5,72.1,66.3,57.6,96,76,60,30.27,30.09,8,1,8,0.00
2013-9-10,92.7,78.8,68.2,74.7,71.3,67.9,99,81,50,30.30,30.19,9,1,9,0.00
2013-9-11,92.8,81.8,69.8,74.9,71.2,68.4,97,72,50,30.27,30.13,10,1,10,0.00
2013-9-12,93.4,78.5,69.6,75.1,70.2,66.2,99,77,50,30.13,29.85,18,1,18,0.22
2013-9-13,83.1,72.4,64.0,70.4,62.1,50.8,99,73,40,30.01,29.81,11,2,11,0.00
2013-9-14,72.3,62.5,52.2,52.0,48.8,45.5,95,63,40,30.26,30.00,12,2,12,0.00
2013-9-15,80.1,62.0,46.8,58.3,53.3,46.5,99,78,42,30.36,30.20,10,1,10,0.00
2013-9-16,77.4,64.4,55.8,67.1,59.7,54.6,99,85,64,30.32,30.18,9,1,9,0.00
2013-9-17,71.2,59.5,48.6,55.4,50.6,42.3,99,76,39,30.50,30.32,9,1,9,0.00
2013-9-18,74.3,56.8,42.3,54.5,48.3,41.7,99,77,35,30.44,30.29,5,1,5,0.00
2013-9-19,78.6,63.0,49.3,61.0,56.0,49.0,99,81,47,30.30,30.19,7,1,7,0.00
2013-9-20,81.0,67.0,55.2,65.5,60.8,55.0,99,82,53,30.20,30.05,6,0,6,0.00
2013-9-21,73.9,66.7,59.2,69.2,63.6,57.8,99,90,70,30.07,29.81,11,1,12,0.20
2013-9-22,76.8,66.0,56.3,66.3,58.2,52.7,99,79,46,30.03,29.82,10,1,10,0.00
2013-9-23,69.3,56.3,49.3,52.7,49.4,45.9,96,79,47,30.19,30.02,8,1,8,0.00
2013-9-24,74.8,58.1,46.2,55.9,50.9,46.0,99,80,49,30.22,30.05,7,1,7,0.00
2013-9-25,76.8,60.6,47.1,61.3,54.3,46.9,99,83,47,30.08,29.97,7,0,7,0.00
2013-9-26,78.3,64.6,54.3,63.0,56.3,51.4,99,78,43,30.17,29.99,11,1,11,0.00
2013-9-27,73.0,59.7,49.1,63.7,54.7,48.8,99,85,56,30.32,30.16,6,1,7,0.00
2013-9-28,70.5,60.6,48.9,58.8,54.9,48.7,99,83,61,30.39,30.29,7,1,7,0.00
2013-9-29,75.2,61.3,48.4,61.0,55.5,48.1,99,83,52,30.30,30.14,8,1,8,0.00
2013-9-30,77.7,61.5,49.5,60.6,54.6,49.2,99,81,45,30.20,30.08,7,0,7,0.00
2013-10-1,84.0,65.2,51.8,64.0,58.5,51.5,99,82,43,30.19,30.09,4,0,5,0.00
2013-10-2,85.8,67.8,54.0,68.4,60.0,53.5,99,80,40,30.21,30.11,7,0,7,0.00
2013-10-3,85.6,69.2,56.5,69.9,63.1,56.2,99,83,50,30.22,30.14,4,0,4,0.00
2013-10-4,89.4,72.3,60.3,70.4,65.2,60.0,99,82,45,30.19,30.11,6,1,6,0.00
2013-10-5,90.9,73.8,61.3,72.8,66.1,61.1,99,81,43,30.19,30.10,7,0,7,0.00
2013-10-6,88.3,74.6,64.0,69.1,65.6,61.6,99,77,44,30.15,30.02,10,1,10,0.00
2013-10-7,78.1,70.2,57.6,71.7,67.5,55.0,99,91,76,30.15,29.93,19,2,19,0.13
2013-10-8,63.9,57.5,52.9,55.1,49.5,46.6,91,75,57,30.35,30.15,9,1,9,0.00
2013-10-9,58.1,56.1,54.1,56.1,53.6,49.5,99,91,77,30.35,30.23,11,2,11,0.27
2013-10-10,57.6,55.8,53.8,57.3,55.4,53.5,99,99,95,30.22,30.03,12,3,12,0.21
2013-10-11,63.3,60.1,57.6,62.2,59.6,57.3,99,98,91,30.05,29.99,10,2,11,0.00
2013-10-12,66.0,63.4,61.2,65.8,63.1,60.9,99,99,97,30.22,30.03,8,1,8,0.01
2013-10-13,64.6,62.6,60.8,64.1,62.3,60.5,99,99,97,30.37,30.19,7,1,8,0.05
2013-10-14,68.4,60.3,50.9,60.5,57.8,50.6,99,92,67,30.40,30.31,7,1,7,0.01
2013-10-15,71.8,59.8,46.4,61.3,55.6,46.1,99,87,61,30.32,30.17,5,1,5,0.00
2013-10-16,72.5,64.6,58.3,65.2,62.1,57.8,99,92,73,30.18,30.03,3,0,3,0.00
2013-10-17,76.5,66.9,60.1,67.4,63.0,59.6,99,88,67,30.04,29.88,11,1,11,0.01
2013-10-18,70.0,59.7,48.9,63.3,51.1,43.8,99,77,39,30.13,29.92,6,1,6,0.00
2013-10-19,63.5,56.5,48.2,62.6,55.9,47.7,99,98,93,30.10,29.89,6,0,6,0.00
2013-10-20,64.9,52.3,41.5,56.5,43.3,33.7,99,76,36,30.22,29.97,8,1,8,0.01
2013-10-21,67.5,50.2,36.0,52.6,42.7,35.7,99,80,40,30.27,30.08,8,1,8,0.00
2013-10-22,71.4,57.3,47.7,57.5,52.0,46.3,99,84,49,30.08,29.89,7,0,7,0.00
2013-10-23,60.8,52.6,43.2,53.5,43.7,35.8,95,73,50,30.04,29.77,11,2,12,0.06
2013-10-24,55.4,44.2,33.6,39.5,34.3,30.4,99,71,40,30.27,30.03,13,1,13,0.00
2013-10-25,57.2,41.1,28.6,36.9,29.5,22.5,97,69,26,30.45,30.25,10,0,10,0.00
2013-10-26,59.4,42.4,27.3,40.8,30.3,24.8,98,68,29,30.44,30.08,13,1,13,0.00
2013-10-27,65.7,49.7,35.4,44.4,38.0,32.8,95,67,35,30.23,30.09,10,0,10,0.00
2013-10-28,68.9,49.5,35.2,49.7,42.8,34.7,99,81,44,30.36,30.22,5,0,5,0.00
2013-10-29,67.8,56.3,47.8,50.6,48.4,45.2,93,77,47,30.47,30.35,4,0,4,0.00
2013-10-30,65.7,56.0,46.6,58.8,53.6,45.1,99,92,77,30.42,30.25,4,0,4,0.01
2013-10-31,72.5,63.2,52.9,61.6,57.7,52.6,99,84,64,30.28,29.95,5,1,5,0.00
2013-11-1,71.6,68.8,63.5,65.4,63.7,59.8,99,84,74,29.92,29.73,9,3,9,0.00
2013-11-2,71.4,61.6,51.4,64.1,50.5,36.2,99,72,28,30.00,29.74,7,1,7,0.00
2013-11-3,60.4,42.2,33.4,45.4,32.9,22.9,98,74,27,30.51,30.00,10,1,10,0.00
2013-11-4,50.0,40.8,33.3,32.5,28.0,23.8,91,62,37,30.72,30.50,8,1,8,0.00
2013-11-5,56.8,46.5,36.0,46.8,38.7,30.7,88,75,59,30.71,30.56,5,0,5,0.00
2013-11-6,70.2,54.1,42.1,54.1,48.6,41.0,99,83,52,30.56,30.20,8,1,8,0.00
2013-11-7,71.6,58.3,40.3,62.8,52.6,32.7,99,82,50,30.20,29.97,11,2,13,0.00
2013-11-8,57.6,42.1,29.7,38.0,28.1,20.8,94,63,27,30.43,30.18,11,1,11,0.00
2013-11-9,59.5,42.3,26.6,38.9,28.5,25.0,96,64,29,30.48,30.19,11,1,11,0.00
2013-11-10,70.2,53.2,37.9,36.6,29.0,17.9,77,44,14,30.36,30.07,14,2,17,0.00
2013-11-11,59.2,45.3,29.3,35.2,29.2,25.3,90,56,30,30.44,30.18,9,1,9,0.00
2013-11-12,50.5,43.2,32.2,37.6,25.0,13.1,67,49,35,30.52,30.07,21,4,21,0.00
2013-11-13,45.5,34.0,21.4,22.3,16.7,13.7,83,52,29,30.62,30.52,21,2,21,0.00
2013-11-14,61.9,39.3,21.6,25.9,17.5,2.7,89,52,10,30.52,30.37,10,1,10,0.00
2013-11-15,61.9,48.2,33.4,44.7,27.6,19.7,87,48,20,30.41,30.30,8,0,8,0.02
2013-11-16,57.9,53.4,48.4,55.6,52.3,44.7,99,96,87,30.40,30.33,3,0,3,0.15
2013-11-17,68.9,60.2,50.7,62.2,56.5,50.5,99,88,69,30.34,29.90,10,1,10,0.00
2013-11-18,68.7,64.4,59.9,66.5,63.1,59.6,99,96,91,29.93,29.83,12,2,12,0.05
2013-11-19,53.1,42.9,37.8,27.9,26.0,21.6,66,52,29,30.46,30.03,12,2,12,0.00
2013-11-20,50.2,41.1,34.2,34.1,28.4,24.8,81,61,45,30.63,30.46,9,2,10,0.00
2013-11-21,57.0,45.8,37.2,44.6,38.7,31.9,89,77,61,30.64,30.50,7,1,7,0.00
2013-11-22,70.9,59.3,45.1,56.4,50.2,42.0,89,73,57,30.50,30.14,11,1,11,0.00
2013-11-23,67.8,56.3,40.3,56.1,36.3,13.1,66,49,24,30.26,30.11,14,3,16,0.00
2013-11-24,40.1,30.5,21.7,17.4,2.8,-5.7,53,31,18,30.65,30.26,20,6,20,0.00
2013-11-25,38.7,28.4,17.1,17.4,10.6,5.7,81,50,26,30.70,30.47,9,2,9,0.00
2013-11-26,61.5,40.9,33.8,61.3,32.9,9.5,99,76,32,30.49,29.65,15,2,15,0.56
2013-11-27,43.0,39.2,31.8,42.7,36.7,19.4,99,92,56,30.20,29.59,13,3,13,0.81
2013-11-28,41.5,31.0,23.0,22.8,18.9,15.0,88,63,38,30.58,30.19,9,2,9,0.00
2013-11-29,45.3,31.5,21.6,28.9,21.7,19.9,94,71,37,30.81,30.56,11,2,11,0.00
2013-11-30,42.4,32.0,21.9,27.2,23.6,19.6,92,73,48,30.81,30.55,6,1,6,0.00
2013-12-1,50.0,39.3,22.1,32.9,29.2,20.7,95,69,46,30.36,30.11,5,1,5,0.00
2013-12-2,58.6,41.4,26.1,39.6,31.8,24.5,97,72,38,30.12,29.94,8,0,8,0.00
2013-12-3,59.4,44.7,32.9,42.0,37.4,31.4,97,78,48,30.10,29.96,8,0,8,0.00
2013-12-4,60.3,52.6,45.0,53.5,49.3,40.9,98,89,77,30.18,30.09,6,1,6,0.00
2013-12-5,64.8,60.4,52.7,63.9,59.6,52.2,99,97,89,30.19,30.07,8,2,8,0.00
2013-12-6,69.4,58.4,44.1,64.9,56.1,42.7,99,92,73,30.22,30.02,14,4,14,0.01
2013-12-7,45.5,40.6,34.2,43.0,34.1,25.1,99,79,61,30.63,30.18,17,4,17,0.26
2013-12-8,34.3,32.1,30.9,31.8,28.0,22.1,99,86,64,30.66,30.39,11,2,11,0.01
2013-12-9,39.0,35.1,31.6,38.6,34.8,31.4,99,99,99,30.39,30.14,8,1,8,0.06
2013-12-10,38.5,35.5,27.9,37.0,35.0,27.6,99,98,93,30.37,30.08,6,1,6,0.25
2013-12-11,45.7,33.8,21.9,32.5,25.0,21.4,99,74,41,30.53,30.35,8,1,10,0.01
2013-12-12,38.5,29.2,22.1,25.6,19.6,14.7,95,70,40,30.53,30.35,10,2,10,0.00
2013-12-13,46.9,32.5,20.7,25.5,18.2,14.2,85,60,28,30.44,30.33,11,1,11,0.00
2013-12-14,44.8,38.2,32.0,42.7,33.6,25.0,99,84,58,30.41,29.83,8,1,8,0.63
2013-12-15,53.6,42.5,32.7,44.2,33.8,24.2,99,74,42,30.10,29.75,13,3,13,0.00
2013-12-16,46.0,37.3,27.9,32.5,28.8,24.2,90,72,52,30.25,30.08,7,1,7,0.00
2013-12-17,54.3,40.6,29.3,40.3,34.4,27.4,96,81,51,30.22,29.99,14,1,14,0.41
2013-12-18,44.8,36.3,26.8,39.7,28.2,21.8,98,76,41,30.34,30.06,12,2,12,0.01
2013-12-19,63.5,45.0,26.1,29.0,25.9,22.6,93,53,21,30.34,30.23,11,2,14,0.00
2013-12-20,66.4,55.2,46.2,51.4,41.0,27.4,85,60,43,30.29,30.14,17,2,17,0.00
2013-12-21,71.2,62.9,54.0,63.6,54.2,47.7,90,74,59,30.20,30.08,14,3,14,0.00
2013-12-22,74.5,66.9,61.0,66.7,63.3,60.6,99,88,75,30.15,30.00,13,3,13,0.25
2013-12-23,66.6,59.0,42.3,65.7,57.0,29.8,99,93,61,30.30,30.05,17,3,17,0.14
2013-12-24,43.7,37.7,27.9,30.2,22.4,6.7,72,55,37,30.58,30.29,16,5,16,0.00
2013-12-25,33.8,26.3,18.9,16.9,10.8,6.8,80,53,37,30.69,30.50,11,2,11,0.00
2013-12-26,49.1,33.5,21.2,24.8,21.2,17.1,89,65,33,30.50,30.32,11,1,11,0.00
2013-12-27,51.4,34.5,22.1,33.0,22.3,18.3,94,67,27,30.56,30.44,11,1,11,0.00
2013-12-28,61.3,40.5,23.5,31.7,24.5,18.5,91,59,19,30.48,30.25,9,1,11,0.00
2013-12-29,52.2,46.1,39.2,51.2,43.7,30.6,99,92,55,30.26,29.69,14,2,14,0.64
2013-12-30,53.6,41.6,33.6,45.3,35.7,28.0,99,81,60,30.26,29.95,10,2,10,0.00
2013-12-31,50.9,38.7,27.5,33.6,25.4,19.2,89,62,29,30.44,30.24,16,2,16,0.00
2014-1-1,49.3,34.2,23.9,33.4,25.8,21.9,94,74,43,30.51,30.23,11,1,11,0.00
2014-1-2,45.0,35.0,27.7,38.1,31.4,24.6,97,87,64,30.23,29.67,8,1,8,0.24